createdAt,value
2023-03-29T00:04:39.261Z,-4.78
2023-03-29T00:10:03.118Z,-4.75
2023-03-29T00:15:27.434Z,-4.89
2023-03-29T00:20:49.976Z,-5.01
2023-03-29T00:26:12.868Z,-5.10
2023-03-29T00:31:36.787Z,-5.23
2023-03-29T00:37:00.326Z,-5.12
2023-03-29T00:42:27.631Z,-5.26
2023-03-29T00:48:08.975Z,-5.34
2023-03-29T00:53:51.167Z,-5.22
2023-03-29T00:59:18.580Z,-5.28
2023-03-29T01:04:51.707Z,-5.21
2023-03-29T01:10:31.344Z,-5.16
2023-03-29T01:15:56.172Z,-5.01
2023-03-29T01:21:29.750Z,-4.96
2023-03-29T01:27:06.848Z,-4.98
2023-03-29T01:32:48.276Z,-4.91
2023-03-29T01:38:21.775Z,-5.01
2023-03-29T01:43:57.561Z,-4.99
2023-03-29T01:49:36.893Z,-5.13
2023-03-29T01:55:07.045Z,-5.13
2023-03-29T02:00:34.392Z,-5.19
2023-03-29T02:06:07.914Z,-5.17
2023-03-29T02:11:31.494Z,-5.30
2023-03-29T02:16:55.076Z,-5.33
2023-03-29T02:22:31.142Z,-5.33
2023-03-29T02:27:54.239Z,-5.45
2023-03-29T02:33:27.259Z,-5.50
2023-03-29T02:38:51.059Z,-5.63
2023-03-29T02:44:15.151Z,-5.65
2023-03-29T02:49:38.024Z,-5.72
2023-03-29T02:55:03.487Z,-5.82
2023-03-29T03:00:29.051Z,-5.93
2023-03-29T03:05:53.368Z,-6.02
2023-03-29T03:11:15.894Z,-6.00
2023-03-29T03:16:39.261Z,-6.04
2023-03-29T03:22:02.057Z,-6.00
2023-03-29T03:27:24.478Z,-6.16
2023-03-29T03:32:48.205Z,-6.22
2023-03-29T03:38:11.023Z,-6.30
2023-03-29T03:43:33.894Z,-6.20
2023-03-29T03:48:58.016Z,-6.33
2023-03-29T03:54:20.502Z,-6.62
2023-03-29T03:59:43.014Z,-6.87
2023-03-29T04:05:05.278Z,-7.08
2023-03-29T04:10:28.662Z,-7.26
2023-03-29T04:15:59.404Z,-7.53
2023-03-29T04:21:21.403Z,-7.59
2023-03-29T04:26:43.908Z,-7.66
2023-03-29T04:32:06.930Z,-7.79
2023-03-29T04:37:30.159Z,-7.80
2023-03-29T04:42:54.689Z,-7.65
2023-03-29T04:48:17.898Z,-7.65
2023-03-29T04:53:41.726Z,-7.64
2023-03-29T04:59:04.818Z,-7.53
2023-03-29T05:04:28.830Z,-7.47
2023-03-29T05:09:52.706Z,-7.41
2023-03-29T05:15:17.173Z,-7.32
2023-03-29T05:20:40.968Z,-7.15
2023-03-29T05:26:05.123Z,-6.95
2023-03-29T05:31:29.061Z,-6.79
2023-03-29T05:36:52.172Z,-6.50
2023-03-29T05:42:17.405Z,-6.14
2023-03-29T05:47:40.273Z,-5.76
2023-03-29T05:53:02.786Z,-5.49
2023-03-29T05:58:26.993Z,-5.31
2023-03-29T06:03:50.737Z,-5.04
2023-03-29T06:09:20.123Z,-4.83
2023-03-29T06:14:59.800Z,-4.70
2023-03-29T06:20:38.460Z,-4.20
2023-03-29T06:26:23.451Z,-3.71
2023-03-29T06:31:52.088Z,-3.41
2023-03-29T06:37:34.312Z,-3.19
2023-03-29T06:48:30.178Z,-2.34
2023-03-29T06:53:52.966Z,-1.97
2023-03-29T06:59:16.446Z,-1.70
2023-03-29T07:04:41.559Z,-1.37
2023-03-29T07:15:45.406Z,-0.69
2023-03-29T07:21:07.911Z,-0.61
2023-03-29T07:26:31.114Z,-0.39
2023-03-29T07:31:55.870Z,-0.04
2023-03-29T07:37:18.537Z,0.51
2023-03-29T07:42:42.016Z,0.85
2023-03-29T07:48:06.265Z,1.19
2023-03-29T07:53:32.458Z,1.54
2023-03-29T07:58:55.143Z,1.93
2023-03-29T08:04:18.975Z,2.32
2023-03-29T08:09:43.517Z,2.50
2023-03-29T08:15:05.787Z,2.73
2023-03-29T08:20:31.938Z,2.85
2023-03-29T08:25:54.453Z,3.00
2023-03-29T08:31:17.637Z,3.16
2023-03-29T08:36:41.548Z,3.38
2023-03-29T08:42:17.949Z,3.52
2023-03-29T08:48:06.614Z,3.63
2023-03-29T08:53:40.644Z,3.82
2023-03-29T08:59:16.656Z,4.31
2023-03-29T09:04:49.205Z,4.38
2023-03-29T09:10:12.706Z,4.47
2023-03-29T09:15:43.337Z,4.81
2023-03-29T09:21:20.187Z,4.67
2023-03-29T09:26:48.074Z,4.81
2023-03-29T09:32:24.405Z,5.04
2023-03-29T09:37:52.177Z,5.26
2023-03-29T09:43:19.084Z,5.53
2023-03-29T09:48:49.165Z,5.39
2023-03-29T09:54:09.353Z,6.09
2023-03-29T09:59:32.324Z,6.37
2023-03-29T10:04:58.858Z,6.81
2023-03-29T10:10:30.160Z,6.96
2023-03-29T10:15:55.470Z,7.58
2023-03-29T10:21:21.169Z,7.65
2023-03-29T10:26:45.697Z,7.93
2023-03-29T10:32:31.177Z,8.25
2023-03-29T10:37:55.931Z,8.70
2023-03-29T10:43:33.350Z,8.07
2023-03-29T10:48:59.154Z,8.86
2023-03-29T10:54:25.140Z,8.06
2023-03-29T11:00:12.672Z,7.46
2023-03-29T11:05:47.911Z,8.15
2023-03-29T11:11:33.047Z,8.33
2023-03-29T11:17:08.648Z,7.84
2023-03-29T11:22:47.987Z,8.34
2023-03-29T11:28:44.233Z,8.80
2023-03-29T11:34:39.875Z,8.42
2023-03-29T11:40:25.247Z,8.23
2023-03-29T11:45:58.022Z,8.76
2023-03-29T11:51:31.060Z,8.40
2023-03-29T11:57:13.468Z,9.26
2023-03-29T12:02:49.547Z,8.54
2023-03-29T12:08:22.105Z,8.58
2023-03-29T12:19:56.889Z,9.43
2023-03-29T12:25:23.443Z,8.75
2023-03-29T12:31:05.678Z,8.80
2023-03-29T12:37:06.701Z,9.02
2023-03-29T12:42:34.988Z,8.25
2023-03-29T12:47:59.074Z,8.59
2023-03-29T12:53:29.634Z,8.58
2023-03-29T12:59:17.868Z,8.28
2023-03-29T13:05:05.817Z,8.55
2023-03-29T13:10:47.308Z,9.12
2023-03-29T13:16:26.724Z,9.10
2023-03-29T13:22:17.216Z,8.55
2023-03-29T13:28:24.256Z,8.42
2023-03-29T13:34:31.752Z,9.93
2023-03-29T13:39:57.713Z,9.33
2023-03-29T13:45:39.093Z,8.63
2023-03-29T13:51:11.312Z,8.31
2023-03-29T13:57:07.950Z,8.55
2023-03-29T14:02:51.597Z,8.59
2023-03-29T14:14:45.165Z,9.16
2023-03-29T14:20:12.217Z,8.65
2023-03-29T14:25:44.135Z,8.17
2023-03-29T14:31:13.377Z,8.30
2023-03-29T14:36:37.631Z,8.38
2023-03-29T14:42:05.534Z,8.47
2023-03-29T14:47:35.228Z,8.47
2023-03-29T14:52:59.858Z,8.26
2023-03-29T14:58:31.845Z,8.46
2023-03-29T15:04:12.192Z,8.11
2023-03-29T15:09:41.256Z,8.38
2023-03-29T15:20:45.516Z,8.63
2023-03-29T15:26:17.416Z,8.52
2023-03-29T15:31:57.409Z,8.60
2023-03-29T15:37:21.783Z,8.55
2023-03-29T15:42:50.968Z,8.44
2023-03-29T15:48:18.821Z,8.41
2023-03-29T15:53:42.290Z,8.75
2023-03-29T15:59:05.729Z,8.96
2023-03-29T16:04:39.847Z,8.68
2023-03-29T16:10:02.982Z,9.31
2023-03-29T16:15:31.563Z,9.46
2023-03-29T16:21:00.786Z,9.07
2023-03-29T16:26:27.558Z,8.99
2023-03-29T16:31:51.415Z,8.62
2023-03-29T16:37:14.109Z,8.36
2023-03-29T16:42:36.635Z,8.22
2023-03-29T16:47:59.208Z,8.09
2023-03-29T16:53:25.331Z,7.98
2023-03-29T16:58:48.070Z,7.89
2023-03-29T17:04:10.526Z,7.82
2023-03-29T17:09:33.777Z,7.79
2023-03-29T17:14:56.650Z,7.74
2023-03-29T17:20:20.570Z,7.66
2023-03-29T17:25:43.771Z,7.58
2023-03-29T17:31:07.591Z,7.48
2023-03-29T17:36:31.731Z,7.34
2023-03-29T17:41:55.462Z,7.20
2023-03-29T17:47:19.553Z,7.14
2023-03-29T17:52:41.995Z,7.10
2023-03-29T17:58:06.026Z,7.03
2023-03-29T18:03:28.379Z,6.99
2023-03-29T18:08:53.093Z,6.97
2023-03-29T18:14:18.227Z,6.93
2023-03-29T18:19:41.310Z,6.92
2023-03-29T18:25:04.708Z,6.96
2023-03-29T18:30:27.727Z,6.87
2023-03-29T18:35:52.055Z,6.85
2023-03-29T18:41:17.082Z,6.74
2023-03-29T18:46:40.987Z,6.62
2023-03-29T18:52:05.255Z,6.50
2023-03-29T18:57:28.194Z,6.45
2023-03-29T19:02:54.094Z,6.38
2023-03-29T19:08:16.552Z,6.33
2023-03-29T19:13:39.193Z,6.30
2023-03-29T19:19:01.751Z,6.31
2023-03-29T19:24:24.690Z,6.34
2023-03-29T19:29:48.455Z,6.36
2023-03-29T19:35:12.997Z,6.35
2023-03-29T19:40:35.432Z,6.32
2023-03-29T19:46:01.583Z,6.24
2023-03-29T19:51:26.177Z,6.15
2023-03-29T19:56:51.948Z,6.23
2023-03-29T20:02:13.627Z,6.26
2023-03-29T20:07:36.382Z,6.18
2023-03-29T20:12:58.788Z,6.17
2023-03-29T20:18:21.237Z,6.11
2023-03-29T20:23:44.574Z,6.15
2023-03-29T20:29:07.919Z,6.14
2023-03-29T20:34:30.387Z,6.12
2023-03-29T20:39:53.236Z,6.10
2023-03-29T20:50:50.218Z,6.16
2023-03-29T20:56:13.428Z,6.02
2023-03-29T21:01:37.693Z,5.98
2023-03-29T21:07:13.601Z,5.92
2023-03-29T21:12:37.576Z,5.87
2023-03-29T21:18:00.222Z,5.83
2023-03-29T21:23:22.612Z,5.81
2023-03-29T21:28:45.270Z,5.82
2023-03-29T21:34:07.721Z,5.82
2023-03-29T21:39:32.650Z,5.80
2023-03-29T21:44:55.062Z,5.80
2023-03-29T21:50:17.843Z,5.77
2023-03-29T21:55:41.261Z,5.79
2023-03-29T22:01:05.716Z,5.75
2023-03-29T22:06:29.853Z,5.81
2023-03-29T22:11:54.159Z,5.87
2023-03-29T22:17:17.555Z,5.89
2023-03-29T22:22:41.083Z,5.88
2023-03-29T22:28:04.299Z,5.85
2023-03-29T22:33:26.664Z,5.87
2023-03-29T22:38:49.406Z,5.79
2023-03-29T22:44:12.819Z,5.68
2023-03-29T22:49:35.100Z,5.62
2023-03-29T22:54:57.498Z,5.63
2023-03-29T23:00:21.607Z,5.53
2023-03-29T23:05:46.457Z,5.48
2023-03-29T23:11:10.047Z,5.37
2023-03-29T23:16:33.052Z,5.36
2023-03-29T23:21:55.482Z,5.35
2023-03-29T23:27:17.871Z,5.32
2023-03-29T23:32:40.620Z,5.35
2023-03-29T23:38:05.407Z,5.45
2023-03-29T23:43:30.110Z,5.50
2023-03-29T23:48:53.453Z,5.43
2023-03-29T23:54:17.560Z,5.39
2023-03-29T23:59:40.460Z,5.32
